createdAt,value
2024-04-24T00:00:58.532Z,91930.25
2024-04-24T00:02:30.276Z,91922.59
2024-04-24T00:04:01.978Z,91923.38
2024-04-24T00:05:33.721Z,91919.13
2024-04-24T00:07:05.440Z,91929.56
2024-04-24T00:08:37.184Z,91928.44
2024-04-24T00:10:08.964Z,91923.13
2024-04-24T00:11:41.123Z,91917.41
2024-04-24T00:13:13.317Z,91922.78
2024-04-24T00:14:45.063Z,91921.81
2024-04-24T00:16:16.738Z,91919.00
2024-04-24T00:17:48.860Z,91922.16
2024-04-24T00:19:20.750Z,91925.28
2024-04-24T00:20:56.387Z,91922.94
2024-04-24T00:22:28.062Z,91918.00
2024-04-24T00:23:59.818Z,91920.78
2024-04-24T00:25:31.573Z,91918.97
2024-04-24T00:27:03.289Z,91924.38
2024-04-24T00:28:34.961Z,91920.09
2024-04-24T00:30:07.117Z,91920.78
2024-04-24T00:31:39.278Z,91918.44
2024-04-24T00:33:11.450Z,91920.69
2024-04-24T00:34:43.369Z,91920.13
2024-04-24T00:36:15.959Z,91916.13
2024-04-24T00:37:47.710Z,91926.44
2024-04-24T00:39:19.775Z,91909.84
2024-04-24T00:40:51.843Z,91919.03
2024-04-24T00:42:23.646Z,91916.59
2024-04-24T00:43:55.449Z,91915.69
2024-04-24T00:45:27.204Z,91920.28
2024-04-24T00:46:59.189Z,91907.13
2024-04-24T00:48:31.131Z,91908.72
2024-04-24T00:50:03.137Z,91906.00
2024-04-24T00:51:34.791Z,91902.44
2024-04-24T00:53:06.719Z,91897.28
2024-04-24T00:54:38.732Z,91895.72
2024-04-24T00:56:11.388Z,91897.63
2024-04-24T00:57:43.597Z,91892.25
2024-04-24T00:59:15.355Z,91896.50
2024-04-24T01:00:47.689Z,91891.56
2024-04-24T01:02:19.465Z,91896.94
2024-04-24T01:03:51.181Z,91901.56
2024-04-24T01:05:23.330Z,91903.78
2024-04-24T01:06:55.533Z,91899.19
2024-04-24T01:08:27.230Z,91902.91
2024-04-24T01:09:59.029Z,91903.59
2024-04-24T01:11:32.589Z,91903.16
2024-04-24T01:13:04.752Z,91909.53
2024-04-24T01:14:36.781Z,91907.19
2024-04-24T01:16:15.870Z,91911.88
2024-04-24T01:17:50.957Z,91914.69
2024-04-24T01:19:32.195Z,91916.28
2024-04-24T01:21:04.394Z,91912.47
2024-04-24T01:22:45.556Z,91923.44
2024-04-24T01:24:18.738Z,91928.25
2024-04-24T01:25:54.926Z,91926.47
2024-04-24T01:27:27.159Z,91921.19
2024-04-24T01:28:58.885Z,91927.38
2024-04-24T01:30:31.042Z,91927.81
2024-04-24T01:32:03.058Z,91933.28
2024-04-24T01:33:34.884Z,91932.50
2024-04-24T01:35:06.978Z,91930.94
2024-04-24T01:36:38.849Z,91937.25
2024-04-24T01:38:10.542Z,91941.97
2024-04-24T01:39:42.277Z,91933.31
2024-04-24T01:41:14.118Z,91930.53
2024-04-24T01:42:45.850Z,91937.03
2024-04-24T01:44:17.606Z,91931.19
2024-04-24T01:45:49.356Z,91931.88
2024-04-24T01:47:21.183Z,91940.41
2024-04-24T01:48:53.296Z,91933.88
2024-04-24T01:50:25.178Z,91934.56
2024-04-24T01:51:57.097Z,91934.81
2024-04-24T01:53:29.191Z,91941.53
2024-04-24T01:55:01.031Z,91940.19
2024-04-24T01:56:32.809Z,91933.13
2024-04-24T01:58:04.786Z,91930.31
2024-04-24T01:59:36.623Z,91930.41
2024-04-24T02:01:08.413Z,91928.31
2024-04-24T02:02:40.158Z,91927.50
2024-04-24T02:04:11.970Z,91929.31
2024-04-24T02:05:44.155Z,91924.81
2024-04-24T02:07:16.196Z,91928.41
2024-04-24T02:08:47.952Z,91923.59
2024-04-24T02:10:19.711Z,91918.53
2024-04-24T02:11:59.438Z,91924.13
2024-04-24T02:13:38.736Z,91932.31
2024-04-24T02:15:10.528Z,91928.28
2024-04-24T02:16:42.173Z,91929.03
2024-04-24T02:18:14.096Z,91930.63
2024-04-24T02:19:46.013Z,91931.41
2024-04-24T02:21:17.896Z,91927.59
2024-04-24T02:22:50.285Z,91930.72
2024-04-24T02:24:41.884Z,91935.44
2024-04-24T02:26:13.981Z,91938.28
2024-04-24T02:27:45.946Z,91931.06
2024-04-24T02:29:17.803Z,91940.19
2024-04-24T02:30:49.896Z,91942.44
2024-04-24T02:32:22.115Z,91943.56
2024-04-24T02:33:53.988Z,91944.88
2024-04-24T02:35:25.812Z,91939.28
2024-04-24T02:36:58.923Z,91942.63
2024-04-24T02:38:30.668Z,91940.41
2024-04-24T02:40:02.426Z,91937.38
2024-04-24T02:41:34.050Z,91942.09
2024-04-24T02:43:05.797Z,91940.84
2024-04-24T02:44:38.136Z,91938.03
2024-04-24T02:46:09.871Z,91939.50
2024-04-24T02:47:41.754Z,91944.44
2024-04-24T02:49:13.576Z,91939.28
2024-04-24T02:50:45.377Z,91943.75
2024-04-24T02:52:17.111Z,91939.75
2024-04-24T02:53:48.911Z,91941.84
2024-04-24T02:55:20.705Z,91951.84
2024-04-24T02:56:53.573Z,91958.69
2024-04-24T02:58:25.522Z,91957.91
2024-04-24T02:59:57.164Z,91957.91
2024-04-24T03:01:28.846Z,91956.34
2024-04-24T03:03:00.825Z,91953.97
2024-04-24T03:04:32.657Z,91952.41
2024-04-24T03:06:04.484Z,91957.66
2024-04-24T03:07:37.696Z,91957.44
2024-04-24T03:09:09.423Z,91958.00
2024-04-24T03:10:41.249Z,91955.66
2024-04-24T03:12:12.979Z,91952.06
2024-04-24T03:13:44.634Z,91955.41
2024-04-24T03:15:16.333Z,91961.47
2024-04-24T03:16:48.201Z,91963.81
2024-04-24T03:18:20.078Z,91960.25
2024-04-24T03:19:51.839Z,91955.75
2024-04-24T03:21:23.628Z,91959.69
2024-04-24T03:22:55.356Z,91962.03
2024-04-24T03:24:27.138Z,91957.00
2024-04-24T03:25:58.894Z,91958.09
2024-04-24T03:27:30.990Z,91963.72
2024-04-24T03:29:02.892Z,91970.22
2024-04-24T03:30:34.562Z,91972.25
2024-04-24T03:32:06.243Z,91966.19
2024-04-24T03:33:38.116Z,91969.00
2024-04-24T03:35:09.889Z,91970.91
2024-04-24T03:36:41.577Z,91968.22
2024-04-24T03:38:13.715Z,91972.81
2024-04-24T03:39:45.938Z,91975.81
2024-04-24T03:41:17.648Z,91970.44
2024-04-24T03:42:49.524Z,91968.53
2024-04-24T03:44:21.278Z,91977.53
2024-04-24T03:45:52.984Z,91976.97
2024-04-24T03:47:24.786Z,91967.56
2024-04-24T03:48:58.350Z,91970.00
2024-04-24T03:50:30.332Z,91973.75
2024-04-24T03:52:01.990Z,91978.56
2024-04-24T03:53:33.817Z,91983.69
2024-04-24T03:55:06.458Z,91985.06
2024-04-24T03:56:38.079Z,91982.16
2024-04-24T03:58:09.750Z,91976.84
2024-04-24T03:59:41.461Z,91980.78
2024-04-24T04:01:13.356Z,91975.84
2024-04-24T04:02:45.176Z,91975.84
2024-04-24T04:04:17.056Z,91983.94
2024-04-24T04:05:49.219Z,91989.53
2024-04-24T04:07:20.920Z,91986.84
2024-04-24T04:08:52.695Z,91992.88
2024-04-24T04:10:24.350Z,91995.94
2024-04-24T04:11:56.075Z,91992.00
2024-04-24T04:13:27.864Z,91995.81
2024-04-24T04:15:01.889Z,91993.13
2024-04-24T04:16:34.019Z,91993.13
2024-04-24T04:18:06.515Z,91994.72
2024-04-24T04:19:38.456Z,91999.97
2024-04-24T04:21:10.305Z,91999.19
2024-04-24T04:22:43.230Z,91993.47
2024-04-24T04:24:15.118Z,92007.38
2024-04-24T04:25:47.110Z,92008.97
2024-04-24T04:27:18.824Z,92000.88
2024-04-24T04:28:50.811Z,92012.78
2024-04-24T04:30:23.040Z,92005.47
2024-04-24T04:31:55.333Z,92006.28
2024-04-24T04:33:27.308Z,92001.53
2024-04-24T04:34:59.551Z,92006.81
2024-04-24T04:36:31.342Z,92007.59
2024-04-24T04:38:03.146Z,91999.84
2024-04-24T04:39:34.770Z,92004.91
2024-04-24T04:41:06.914Z,92004.25
2024-04-24T04:42:38.667Z,92009.28
2024-04-24T04:44:10.433Z,92006.94
2024-04-24T04:45:42.213Z,92003.25
2024-04-24T04:47:13.918Z,92008.72
2024-04-24T04:48:45.731Z,92012.53
2024-04-24T04:50:17.592Z,92007.59
2024-04-24T04:51:49.386Z,92011.56
2024-04-24T04:53:21.288Z,92003.59
2024-04-24T04:54:53.152Z,92007.94
2024-04-24T04:56:27.219Z,92007.06
2024-04-24T04:58:04.575Z,92011.69
2024-04-24T04:59:36.695Z,92011.56
2024-04-24T05:01:09.873Z,92011.75
2024-04-24T05:02:41.856Z,92006.81
2024-04-24T05:04:13.728Z,92017.25
2024-04-24T05:05:46.018Z,92019.66
2024-04-24T05:07:17.700Z,92014.09
2024-04-24T05:08:52.253Z,92017.84
2024-04-24T05:10:25.553Z,92013.44
2024-04-24T05:11:57.316Z,92017.59
2024-04-24T05:13:28.998Z,92020.63
2024-04-24T05:15:01.033Z,92023.66
2024-04-24T05:16:33.226Z,92018.38
2024-04-24T05:18:05.718Z,92017.03
2024-04-24T05:19:38.090Z,92021.41
2024-04-24T05:21:09.862Z,92015.03
2024-04-24T05:22:48.481Z,92008.19
2024-04-24T05:24:20.539Z,92015.94
2024-04-24T05:25:56.768Z,92016.72
2024-04-24T05:27:47.291Z,92015.25
2024-04-24T05:29:19.189Z,92025.34
2024-04-24T05:30:50.978Z,92025.34
2024-04-24T05:32:22.824Z,92032.19
2024-04-24T05:33:54.759Z,92020.44
2024-04-24T05:35:26.691Z,92025.34
2024-04-24T05:36:58.544Z,92019.16
2024-04-24T05:38:30.417Z,92017.41
2024-04-24T05:40:02.311Z,92027.25
2024-04-24T05:41:34.100Z,92023.56
2024-04-24T05:43:06.022Z,92023.00
2024-04-24T05:44:37.776Z,92020.75
2024-04-24T05:46:09.502Z,92023.09
2024-04-24T05:47:41.343Z,92018.84
2024-04-24T05:49:13.121Z,92018.50
2024-04-24T05:50:45.163Z,92010.16
2024-04-24T05:52:16.977Z,92015.44
2024-04-24T05:53:48.833Z,92022.28
2024-04-24T05:55:20.548Z,92027.19
2024-04-24T05:56:52.266Z,92026.72
2024-04-24T05:58:24.260Z,92028.91
2024-04-24T05:59:55.988Z,92031.81
2024-04-24T06:01:33.181Z,92023.59
2024-04-24T06:03:05.490Z,92029.16
2024-04-24T06:04:37.256Z,92025.88
2024-04-24T06:06:09.316Z,92030.00
2024-04-24T06:07:42.387Z,92036.06
2024-04-24T06:09:17.210Z,92034.00
2024-04-24T06:10:49.019Z,92026.41
2024-04-24T06:12:20.840Z,92036.97
2024-04-24T06:13:52.513Z,92025.13
2024-04-24T06:15:24.439Z,92031.50
2024-04-24T06:16:56.202Z,92028.97
2024-04-24T06:18:27.978Z,92025.91
2024-04-24T06:19:59.919Z,92023.31
2024-04-24T06:21:31.665Z,92021.56
2024-04-24T06:23:03.464Z,92022.31
2024-04-24T06:24:35.174Z,92030.25
2024-04-24T06:26:06.879Z,92024.84
2024-04-24T06:27:39.726Z,92027.38
2024-04-24T06:29:11.445Z,92028.97
2024-04-24T06:30:43.464Z,92030.88
2024-04-24T06:32:15.353Z,92029.84
2024-04-24T06:33:47.350Z,92026.00
2024-04-24T06:35:23.938Z,92029.16
2024-04-24T06:36:57.721Z,92029.22
2024-04-24T06:38:29.738Z,92032.53
2024-04-24T06:40:01.558Z,92022.16
2024-04-24T06:41:33.407Z,92027.81
2024-04-24T06:43:05.631Z,92024.22
2024-04-24T06:44:37.271Z,92023.59
2024-04-24T06:46:08.988Z,92019.31
2024-04-24T06:47:40.801Z,92017.34
2024-04-24T06:49:12.437Z,92015.72
2024-04-24T06:50:44.597Z,92018.81
2024-04-24T06:52:16.270Z,92017.88
2024-04-24T06:53:47.914Z,92024.75
2024-04-24T06:55:22.619Z,92021.91
2024-04-24T06:56:58.064Z,92025.63
2024-04-24T06:58:33.167Z,92029.22
2024-04-24T07:00:05.361Z,92032.44
2024-04-24T07:01:37.314Z,92023.78
2024-04-24T07:03:09.107Z,92023.00
2024-04-24T07:04:41.651Z,92014.00
2024-04-24T07:06:13.453Z,92022.03
2024-04-24T07:07:45.101Z,92029.69
2024-04-24T07:09:16.742Z,92024.94
2024-04-24T07:10:48.552Z,92024.44
2024-04-24T07:12:20.795Z,92024.66
2024-04-24T07:13:53.142Z,92025.22
2024-04-24T07:15:24.936Z,92015.97
2024-04-24T07:16:56.633Z,92014.41
2024-04-24T07:18:28.452Z,92010.59
2024-04-24T07:20:00.382Z,92018.81
2024-04-24T07:21:32.252Z,92014.31
2024-04-24T07:23:07.300Z,92021.34
2024-04-24T07:24:39.039Z,92018.69
2024-04-24T07:26:10.795Z,92007.88
2024-04-24T07:27:42.549Z,92009.13
2024-04-24T07:29:14.275Z,92008.81
2024-04-24T07:30:46.543Z,92004.63
2024-04-24T07:32:18.226Z,92006.72
2024-04-24T07:33:49.986Z,92017.31
2024-04-24T07:35:21.669Z,92019.81
2024-04-24T07:36:53.860Z,92015.94
2024-04-24T07:38:26.072Z,92023.41
2024-04-24T07:39:57.726Z,92019.19
2024-04-24T07:41:29.910Z,92014.50
2024-04-24T07:43:01.876Z,92024.66
2024-04-24T07:44:33.990Z,92017.75
2024-04-24T07:46:06.478Z,92019.31
2024-04-24T07:47:38.276Z,92022.44
2024-04-24T07:49:10.204Z,92020.09
2024-04-24T07:50:43.683Z,92024.78
2024-04-24T07:52:15.352Z,92020.13
2024-04-24T07:53:47.505Z,92019.75
2024-04-24T07:55:19.684Z,92013.97
2024-04-24T07:56:51.625Z,92022.56
2024-04-24T07:58:23.946Z,92014.88
2024-04-24T07:59:55.608Z,92016.09
2024-04-24T08:01:27.367Z,92007.97
2024-04-24T08:02:59.156Z,92011.53
2024-04-24T08:04:30.832Z,92018.94
2024-04-24T08:06:02.538Z,92013.91
2024-04-24T08:07:36.294Z,92019.78
2024-04-24T08:09:07.992Z,92019.03
2024-04-24T08:10:39.884Z,92020.59
2024-04-24T08:12:11.695Z,92030.72
2024-04-24T08:13:43.759Z,92033.06
2024-04-24T08:15:15.540Z,92029.94
2024-04-24T08:16:47.256Z,92034.63
2024-04-24T08:18:19.018Z,92036.97
2024-04-24T08:19:50.824Z,92034.59
2024-04-24T08:21:22.885Z,92031.09
2024-04-24T08:22:54.606Z,92030.69
2024-04-24T08:24:26.311Z,92026.78
2024-04-24T08:25:58.103Z,92025.25
2024-04-24T08:27:30.024Z,92022.06
2024-04-24T08:29:02.354Z,92025.97
2024-04-24T08:30:34.094Z,92025.19
2024-04-24T08:32:05.984Z,92027.13
2024-04-24T08:33:37.905Z,92018.16
2024-04-24T08:35:09.800Z,92026.78
2024-04-24T08:36:43.595Z,92020.91
2024-04-24T08:38:16.942Z,92015.84
2024-04-24T08:39:49.308Z,92015.06
2024-04-24T08:41:20.978Z,92013.47
2024-04-24T08:42:52.691Z,92016.59
2024-04-24T08:44:25.507Z,92004.88
2024-04-24T08:45:59.527Z,92006.81
2024-04-24T08:47:31.478Z,92009.53
2024-04-24T08:49:05.339Z,92013.03
2024-04-24T08:50:37.691Z,92011.47
2024-04-24T08:52:09.729Z,92011.09
2024-04-24T08:53:46.445Z,92018.84
2024-04-24T08:55:18.639Z,92021.19
2024-04-24T08:56:54.390Z,92020.44
2024-04-24T08:58:26.204Z,92022.81
2024-04-24T09:00:00.887Z,92027.53
2024-04-24T09:01:33.831Z,92024.44
2024-04-24T09:03:07.422Z,92028.34
2024-04-24T09:04:41.014Z,92019.00
2024-04-24T09:06:13.581Z,92016.63
2024-04-24T09:07:45.242Z,92013.91
2024-04-24T09:09:17.004Z,92002.63
2024-04-24T09:10:50.095Z,92008.47
2024-04-24T09:12:22.319Z,92012.34
2024-04-24T09:13:54.844Z,92006.91
2024-04-24T09:15:28.508Z,92006.94
2024-04-24T09:17:01.480Z,92008.47
2024-04-24T09:18:33.354Z,92007.31
2024-04-24T09:20:05.224Z,92006.94
2024-04-24T09:21:36.963Z,92010.44
2024-04-24T09:23:15.604Z,92008.09
2024-04-24T09:24:53.997Z,92008.44
2024-04-24T09:26:27.737Z,92009.63
2024-04-24T09:27:59.673Z,92005.75
2024-04-24T09:29:31.798Z,92001.84
2024-04-24T09:31:04.428Z,92002.59
2024-04-24T09:32:36.304Z,92005.75
2024-04-24T09:34:08.579Z,92001.00
2024-04-24T09:35:40.307Z,91993.59
2024-04-24T09:37:12.022Z,91993.59
2024-04-24T09:38:43.723Z,91993.63
2024-04-24T09:40:15.977Z,91995.91
2024-04-24T09:41:48.475Z,91988.09
2024-04-24T09:43:23.135Z,91990.81
2024-04-24T09:44:56.176Z,91982.63
2024-04-24T09:46:29.453Z,91972.09
2024-04-24T09:48:01.616Z,91994.00
2024-04-24T09:49:34.096Z,91985.44
2024-04-24T09:51:11.100Z,91981.19
2024-04-24T09:52:49.612Z,91987.03
2024-04-24T09:54:22.764Z,91978.44
2024-04-24T09:56:04.449Z,91992.50
2024-04-24T09:57:37.426Z,91989.34
2024-04-24T09:59:10.129Z,91978.06
2024-04-24T10:00:41.881Z,91989.00
2024-04-24T10:02:14.415Z,91995.63
2024-04-24T10:03:46.981Z,92003.41
2024-04-24T10:05:23.980Z,91994.81
2024-04-24T10:06:59.474Z,91991.69
2024-04-24T10:08:34.476Z,91999.50
2024-04-24T10:10:06.900Z,91990.16
2024-04-24T10:11:59.440Z,92004.56
2024-04-24T10:13:31.727Z,92016.28
2024-04-24T10:15:08.574Z,91997.94
2024-04-24T10:16:40.304Z,91993.25
2024-04-24T10:18:12.198Z,91987.78
2024-04-24T10:19:44.051Z,91991.28
2024-04-24T10:21:15.902Z,91994.75
2024-04-24T10:22:47.708Z,91982.31
2024-04-24T10:24:19.918Z,91992.09
2024-04-24T10:25:53.395Z,91992.88
2024-04-24T10:27:25.878Z,91989.38
2024-04-24T10:28:57.721Z,91985.47
2024-04-24T10:30:29.903Z,91992.47
2024-04-24T10:32:02.349Z,91987.03
2024-04-24T10:33:35.316Z,91988.19
2024-04-24T10:35:07.539Z,91992.09
2024-04-24T10:36:39.822Z,91999.50
2024-04-24T10:38:13.857Z,91981.50
2024-04-24T10:39:45.817Z,91984.59
2024-04-24T10:41:17.816Z,91984.56
2024-04-24T10:42:50.227Z,91990.03
2024-04-24T10:44:22.304Z,91995.16
2024-04-24T10:45:54.650Z,91994.00
2024-04-24T10:47:27.188Z,91982.69
2024-04-24T10:49:00.516Z,91983.81
2024-04-24T10:50:35.641Z,91989.63
2024-04-24T10:52:07.846Z,91984.53
2024-04-24T10:53:52.447Z,91975.91
2024-04-24T10:55:29.679Z,91982.13
2024-04-24T10:57:03.307Z,91984.47
2024-04-24T10:58:34.959Z,91981.31
2024-04-24T11:00:22.318Z,91987.50
2024-04-24T11:01:54.938Z,91984.25
2024-04-24T11:03:26.918Z,91984.16
2024-04-24T11:04:58.768Z,91977.88
2024-04-24T11:06:30.811Z,91981.78
2024-04-24T11:08:03.317Z,91977.81
2024-04-24T11:09:35.056Z,91986.31
2024-04-24T11:11:07.092Z,91976.91
2024-04-24T11:12:42.203Z,91981.56
2024-04-24T11:14:15.450Z,91968.63
2024-04-24T11:15:54.714Z,91981.47
2024-04-24T11:17:33.325Z,91980.19
2024-04-24T11:19:05.028Z,91975.88
2024-04-24T11:20:39.279Z,91973.22
2024-04-24T11:22:11.061Z,91971.72
2024-04-24T11:23:46.548Z,91982.25
2024-04-24T11:25:21.591Z,91978.06
2024-04-24T11:26:53.851Z,91977.69
2024-04-24T11:28:27.470Z,91973.78
2024-04-24T11:29:59.382Z,91974.97
2024-04-24T11:31:31.707Z,91968.69
2024-04-24T11:33:03.620Z,91978.03
2024-04-24T11:34:36.989Z,91966.22
2024-04-24T11:36:08.734Z,91968.16
2024-04-24T11:37:40.672Z,91957.31
2024-04-24T11:39:13.927Z,91969.06
2024-04-24T11:40:45.852Z,91964.88
2024-04-24T11:42:17.826Z,91966.78
2024-04-24T11:43:49.999Z,91962.50
2024-04-24T11:45:24.350Z,91959.50
2024-04-24T11:46:58.119Z,91963.03
2024-04-24T11:48:40.423Z,91959.47
2024-04-24T11:50:16.243Z,91961.84
2024-04-24T11:51:48.202Z,91970.44
2024-04-24T11:53:20.121Z,91955.19
2024-04-24T11:54:53.216Z,91955.13
2024-04-24T11:56:25.552Z,91949.50
2024-04-24T11:57:57.329Z,91956.50
2024-04-24T11:59:31.042Z,91950.69
2024-04-24T12:01:03.010Z,91949.94
2024-04-24T12:02:35.885Z,91951.19
2024-04-24T12:04:09.093Z,91941.50
2024-04-24T12:05:41.133Z,91946.59
2024-04-24T12:07:13.327Z,91944.84
2024-04-24T12:08:45.709Z,91947.13
2024-04-24T12:10:21.979Z,91940.03
2024-04-24T12:11:53.663Z,91940.78
2024-04-24T12:13:34.491Z,91940.03
2024-04-24T12:15:06.353Z,91942.41
2024-04-24T12:16:38.104Z,91946.75
2024-04-24T12:18:09.960Z,91950.31
2024-04-24T12:19:42.810Z,91933.88
2024-04-24T12:21:15.744Z,91931.47
2024-04-24T12:22:47.483Z,91935.28
2024-04-24T12:24:19.233Z,91942.34
2024-04-24T12:25:54.312Z,91936.09
2024-04-24T12:27:25.970Z,91930.69
2024-04-24T12:28:57.672Z,91927.59
2024-04-24T12:30:29.328Z,91927.25
2024-04-24T12:32:02.495Z,91924.06
2024-04-24T12:33:39.264Z,91921.13
2024-04-24T12:35:11.629Z,91921.66
2024-04-24T12:36:43.629Z,91917.47
2024-04-24T12:38:15.535Z,91910.44
2024-04-24T12:39:47.953Z,91916.91
2024-04-24T12:41:19.704Z,91914.66
2024-04-24T12:42:52.261Z,91911.28
2024-04-24T12:44:24.181Z,91905.03
2024-04-24T12:45:56.543Z,91915.28
2024-04-24T12:47:29.650Z,91909.34
2024-04-24T12:49:04.828Z,91901.50
2024-04-24T12:50:36.850Z,91902.09
2024-04-24T12:52:08.900Z,91906.00
2024-04-24T12:53:40.889Z,91904.44
2024-04-24T12:55:13.127Z,91904.81
2024-04-24T12:56:45.360Z,91900.88
2024-04-24T12:58:17.833Z,91905.97
2024-04-24T12:59:49.836Z,91911.50
2024-04-24T13:01:22.268Z,91900.81
2024-04-24T13:02:56.174Z,91903.94
2024-04-24T13:04:28.299Z,91899.97
2024-04-24T13:06:00.195Z,91897.63
2024-04-24T13:07:32.201Z,91900.28
2024-04-24T13:09:03.897Z,91901.00
2024-04-24T13:10:35.944Z,91895.53
2024-04-24T13:12:08.274Z,91900.63
2024-04-24T13:13:39.930Z,91901.81
2024-04-24T13:15:11.639Z,91894.84
2024-04-24T13:16:43.679Z,91894.28
2024-04-24T13:18:19.600Z,91902.91
2024-04-24T13:19:53.145Z,91900.22
2024-04-24T13:21:24.843Z,91906.44
2024-04-24T13:22:56.793Z,91911.16
2024-04-24T13:24:28.579Z,91899.19
2024-04-24T13:26:00.789Z,91892.59
2024-04-24T13:27:32.820Z,91899.59
2024-04-24T13:29:04.614Z,91898.94
2024-04-24T13:30:36.457Z,91895.47
2024-04-24T13:32:08.718Z,91890.44
2024-04-24T13:33:40.594Z,91893.50
2024-04-24T13:35:12.476Z,91883.25
2024-04-24T13:36:44.196Z,91882.38
2024-04-24T13:38:17.148Z,91887.44
2024-04-24T13:39:49.164Z,91879.22
2024-04-24T13:41:23.917Z,91876.84
2024-04-24T13:42:56.023Z,91881.94
2024-04-24T13:44:27.796Z,91891.81
2024-04-24T13:45:59.541Z,91875.13
2024-04-24T13:47:31.502Z,91878.66
2024-04-24T13:49:03.598Z,91877.91
2024-04-24T13:50:35.491Z,91868.56
2024-04-24T13:52:07.431Z,91872.47
2024-04-24T13:53:39.480Z,91873.19
2024-04-24T13:55:11.397Z,91865.34
2024-04-24T13:56:43.171Z,91867.56
2024-04-24T13:58:15.309Z,91869.44
2024-04-24T13:59:47.095Z,91865.91
2024-04-24T14:01:19.492Z,91865.84
2024-04-24T14:02:52.015Z,91862.69
2024-04-24T14:04:24.080Z,91866.56
2024-04-24T14:05:58.504Z,91865.06
2024-04-24T14:07:30.170Z,91865.56
2024-04-24T14:09:02.284Z,91862.91
2024-04-24T14:10:34.038Z,91858.31
2024-04-24T14:12:06.262Z,91869.25
2024-04-24T14:13:38.643Z,91870.50
2024-04-24T14:15:10.611Z,91869.66
2024-04-24T14:16:42.474Z,91869.22
2024-04-24T14:18:14.239Z,91871.59
2024-04-24T14:19:46.626Z,91855.97
2024-04-24T14:21:20.047Z,91878.66
2024-04-24T14:22:51.670Z,91865.41
2024-04-24T14:24:26.671Z,91867.06
2024-04-24T14:25:59.071Z,91858.81
2024-04-24T14:27:30.854Z,91863.06
2024-04-24T14:29:02.827Z,91862.28
2024-04-24T14:30:34.761Z,91852.13
2024-04-24T14:32:07.182Z,91856.38
2024-04-24T14:33:38.890Z,91864.56
2024-04-24T14:35:10.760Z,91853.22
2024-04-24T14:36:42.527Z,91860.63
2024-04-24T14:38:14.370Z,91854.03
2024-04-24T14:39:46.101Z,91863.06
2024-04-24T14:41:18.889Z,91860.44
2024-04-24T14:42:50.698Z,91861.25
2024-04-24T14:44:22.577Z,91855.75
2024-04-24T14:45:54.230Z,91860.88
2024-04-24T14:47:26.390Z,91860.91
2024-04-24T14:49:03.017Z,91866.75
2024-04-24T14:50:35.866Z,91861.28
2024-04-24T14:52:08.021Z,91865.59
2024-04-24T14:53:39.750Z,91860.91
2024-04-24T14:55:11.782Z,91857.75
2024-04-24T14:56:44.846Z,91864.41
2024-04-24T14:58:16.741Z,91868.31
2024-04-24T14:59:48.932Z,91864.41
2024-04-24T15:01:20.876Z,91863.25
2024-04-24T15:02:53.178Z,91871.06
2024-04-24T15:04:24.979Z,91868.31
2024-04-24T15:06:00.901Z,91871.09
2024-04-24T15:07:34.065Z,91865.38
2024-04-24T15:09:05.927Z,91868.56
2024-04-24T15:10:37.694Z,91865.47
2024-04-24T15:12:09.583Z,91883.03
2024-04-24T15:13:43.366Z,91871.38
2024-04-24T15:15:15.474Z,91863.63
2024-04-24T15:16:47.384Z,91875.38
2024-04-24T15:18:19.749Z,91861.72
2024-04-24T15:19:52.004Z,91863.63
2024-04-24T15:21:25.099Z,91862.00
2024-04-24T15:22:57.012Z,91866.69
2024-04-24T15:24:28.798Z,91856.94
2024-04-24T15:26:02.062Z,91861.94
2024-04-24T15:27:33.830Z,91860.38
2024-04-24T15:29:06.056Z,91862.72
2024-04-24T15:30:37.873Z,91865.06
2024-04-24T15:32:10.047Z,91865.47
2024-04-24T15:33:43.649Z,91862.00
2024-04-24T15:35:16.144Z,91859.66
2024-04-24T15:36:47.908Z,91872.16
2024-04-24T15:38:19.580Z,91867.84
2024-04-24T15:39:51.398Z,91872.50
2024-04-24T15:41:23.367Z,91866.63
2024-04-24T15:42:55.149Z,91867.41
2024-04-24T15:44:27.048Z,91868.63
2024-04-24T15:45:59.220Z,91870.19
2024-04-24T15:47:31.728Z,91867.84
2024-04-24T15:49:03.722Z,91876.88
2024-04-24T15:50:35.986Z,91874.19
2024-04-24T15:52:08.112Z,91877.34
2024-04-24T15:53:40.429Z,91876.19
2024-04-24T15:55:13.161Z,91875.41
2024-04-24T15:56:45.293Z,91873.09
2024-04-24T15:58:17.051Z,91862.94
2024-04-24T15:59:48.719Z,91866.44
2024-04-24T16:01:20.431Z,91861.38
2024-04-24T16:02:52.781Z,91868.00
2024-04-24T16:04:24.869Z,91862.16
2024-04-24T16:05:56.991Z,91866.84
2024-04-24T16:07:29.351Z,91860.63
2024-04-24T16:09:01.178Z,91862.63
2024-04-24T16:10:33.237Z,91862.22
2024-04-24T16:12:04.942Z,91867.72
2024-04-24T16:13:36.695Z,91866.91
2024-04-24T16:15:10.701Z,91867.69
2024-04-24T16:16:42.463Z,91868.91
2024-04-24T16:18:14.470Z,91868.88
2024-04-24T16:19:46.272Z,91871.22
2024-04-24T16:21:17.975Z,91874.75
2024-04-24T16:22:50.304Z,91877.84
2024-04-24T16:24:22.005Z,91869.28
2024-04-24T16:25:53.742Z,91879.00
2024-04-24T16:27:25.437Z,91873.19
2024-04-24T16:28:57.143Z,91863.06
2024-04-24T16:30:29.435Z,91870.84
2024-04-24T16:32:01.376Z,91872.78
2024-04-24T16:33:33.257Z,91884.06
2024-04-24T16:35:05.351Z,91875.50
2024-04-24T16:36:37.054Z,91880.91
2024-04-24T16:38:08.753Z,91871.56
2024-04-24T16:39:41.888Z,91875.81
2024-04-24T16:41:21.059Z,91866.44
2024-04-24T16:42:52.890Z,91873.03
2024-04-24T16:44:24.721Z,91871.41
2024-04-24T16:45:56.690Z,91873.00
2024-04-24T16:47:28.688Z,91870.25
2024-04-24T16:49:00.413Z,91873.75
2024-04-24T16:50:32.390Z,91878.00
2024-04-24T16:52:09.162Z,91876.06
2024-04-24T16:53:40.846Z,91882.25
2024-04-24T16:55:13.417Z,91887.69
2024-04-24T16:56:45.352Z,91890.41
2024-04-24T16:58:17.066Z,91884.56
2024-04-24T16:59:48.810Z,91896.94
2024-04-24T17:01:20.557Z,91901.22
2024-04-24T17:02:52.250Z,91890.63
2024-04-24T17:04:26.044Z,91892.88
2024-04-24T17:05:57.812Z,91895.91
2024-04-24T17:07:29.484Z,91893.47
2024-04-24T17:09:01.301Z,91894.22
2024-04-24T17:10:33.327Z,91900.00
2024-04-24T17:12:05.296Z,91903.47
2024-04-24T17:13:37.037Z,91909.22
2024-04-24T17:15:08.758Z,91905.69
2024-04-24T17:16:40.486Z,91911.84
2024-04-24T17:18:12.513Z,91907.56
2024-04-24T17:19:44.341Z,91911.84
2024-04-24T17:21:17.515Z,91911.84
2024-04-24T17:22:51.399Z,91906.41
2024-04-24T17:24:23.356Z,91909.91
2024-04-24T17:25:55.233Z,91907.19
2024-04-24T17:27:26.882Z,91902.91
2024-04-24T17:28:58.695Z,91908.72
2024-04-24T17:30:30.496Z,91907.97
2024-04-24T17:32:02.244Z,91904.84
2024-04-24T17:33:33.896Z,91908.34
2024-04-24T17:35:05.840Z,91907.97
2024-04-24T17:36:37.556Z,91915.00
2024-04-24T17:38:09.299Z,91909.50
2024-04-24T17:39:41.011Z,91919.59
2024-04-24T17:41:12.790Z,91914.13
2024-04-24T17:42:44.517Z,91909.41
2024-04-24T17:44:17.059Z,91909.81
2024-04-24T17:45:48.794Z,91913.69
2024-04-24T17:47:23.886Z,91914.06
2024-04-24T17:48:55.693Z,91909.66
2024-04-24T17:50:27.496Z,91910.03
2024-04-24T17:51:59.302Z,91913.03
2024-04-24T17:53:31.202Z,91916.09
2024-04-24T17:55:03.315Z,91923.81
2024-04-24T17:56:36.505Z,91923.81
2024-04-24T17:58:08.231Z,91932.63
2024-04-24T17:59:41.302Z,91937.53
2024-04-24T18:01:14.334Z,91936.25
2024-04-24T18:02:48.586Z,91946.69
2024-04-24T18:04:20.278Z,91954.34
2024-04-24T18:05:52.080Z,91954.31
2024-04-24T18:07:23.795Z,91953.13